createdAt,value
2023-04-18T00:00:13.402Z,10.81
2023-04-18T00:01:15.176Z,10.80
2023-04-18T00:02:19.681Z,10.84
2023-04-18T00:03:21.938Z,10.83
2023-04-18T00:04:24.135Z,10.88
2023-04-18T00:05:26.330Z,10.88
2023-04-18T00:06:30.073Z,10.88
2023-04-18T00:07:31.845Z,10.89
2023-04-18T00:08:34.368Z,10.97
2023-04-18T00:09:36.250Z,11.01
2023-04-18T00:10:38.005Z,10.98
2023-04-18T00:11:39.816Z,10.95
2023-04-18T00:12:41.559Z,10.92
2023-04-18T00:13:43.372Z,11.00
2023-04-18T00:14:45.050Z,10.99
2023-04-18T00:15:46.819Z,10.94
2023-04-18T00:16:48.563Z,10.97
2023-04-18T00:17:50.317Z,10.96
2023-04-18T00:18:52.830Z,11.00
2023-04-18T00:19:56.451Z,11.04
2023-04-18T00:20:58.190Z,11.01
2023-04-18T00:22:00.060Z,10.99
2023-04-18T00:23:01.973Z,10.92
2023-04-18T00:24:03.729Z,10.91
2023-04-18T00:25:05.882Z,10.86
2023-04-18T00:26:07.567Z,10.87
2023-04-18T00:27:09.282Z,10.76
2023-04-18T00:28:11.043Z,10.76
2023-04-18T00:29:12.765Z,10.76
2023-04-18T00:30:14.877Z,10.69
2023-04-18T00:31:16.670Z,10.67
2023-04-18T00:32:18.564Z,10.63
2023-04-18T00:33:20.342Z,10.68
2023-04-18T00:34:22.028Z,10.63
2023-04-18T00:35:23.840Z,10.61
2023-04-18T00:36:27.199Z,10.63
2023-04-18T00:37:29.671Z,10.59
2023-04-18T00:38:31.421Z,10.63
2023-04-18T00:39:35.322Z,10.65
2023-04-18T00:40:37.951Z,10.58
2023-04-18T00:41:39.696Z,10.60
2023-04-18T00:42:41.438Z,10.60
2023-04-18T00:43:43.212Z,10.63
2023-04-18T00:44:44.923Z,10.65
2023-04-18T00:45:46.615Z,10.66
2023-04-18T00:46:48.462Z,10.67
2023-04-18T00:47:50.230Z,10.61
2023-04-18T00:48:52.084Z,10.61
2023-04-18T00:49:54.596Z,10.56
2023-04-18T00:50:56.863Z,10.54
2023-04-18T00:51:59.421Z,10.40
2023-04-18T00:53:01.284Z,10.56
2023-04-18T00:54:07.852Z,10.60
2023-04-18T00:55:10.278Z,10.54
2023-04-18T00:56:12.027Z,10.50
2023-04-18T00:57:13.858Z,10.50
2023-04-18T00:58:16.024Z,10.51
2023-04-18T00:59:17.969Z,10.47
2023-04-18T01:00:19.840Z,10.44
2023-04-18T01:01:22.252Z,10.49
2023-04-18T01:02:26.395Z,10.53
2023-04-18T01:03:28.558Z,10.55
2023-04-18T01:04:32.633Z,10.55
2023-04-18T01:05:36.366Z,10.64
2023-04-18T01:06:38.258Z,10.66
2023-04-18T01:07:42.934Z,10.66
2023-04-18T01:08:45.763Z,10.70
2023-04-18T01:09:47.920Z,10.72
2023-04-18T01:10:50.063Z,10.76
2023-04-18T01:11:51.923Z,10.74
2023-04-18T01:13:12.785Z,10.72
2023-04-18T01:14:14.788Z,10.73
2023-04-18T01:15:16.827Z,10.70
2023-04-18T01:16:18.571Z,10.75
2023-04-18T01:17:20.614Z,10.73
2023-04-18T01:18:22.696Z,10.62
2023-04-18T01:19:24.691Z,10.59
2023-04-18T01:20:26.540Z,10.57
2023-04-18T01:21:31.408Z,10.58
2023-04-18T01:22:33.609Z,10.58
2023-04-18T01:23:35.696Z,10.61
2023-04-18T01:24:37.444Z,10.57
2023-04-18T01:25:39.482Z,10.64
2023-04-18T01:26:43.707Z,10.64
2023-04-18T01:27:45.412Z,10.59
2023-04-18T01:28:47.122Z,10.54
2023-04-18T01:29:48.810Z,10.52
2023-04-18T01:30:50.603Z,10.48
2023-04-18T01:31:52.465Z,10.47
2023-04-18T01:32:54.542Z,10.48
2023-04-18T01:33:56.402Z,10.51
2023-04-18T01:34:58.096Z,10.53
2023-04-18T01:35:59.797Z,10.43
2023-04-18T01:37:01.582Z,10.39
2023-04-18T01:38:03.656Z,10.30
2023-04-18T01:39:05.560Z,10.33
2023-04-18T01:40:07.952Z,10.27
2023-04-18T01:41:09.676Z,10.27
2023-04-18T01:42:11.452Z,10.26
2023-04-18T01:43:13.211Z,10.25
2023-04-18T01:44:15.073Z,10.23
2023-04-18T01:45:17.663Z,10.20
2023-04-18T01:46:19.813Z,10.14
2023-04-18T01:47:21.599Z,10.13
2023-04-18T01:48:23.322Z,10.02
2023-04-18T01:49:25.020Z,10.10
2023-04-18T01:50:26.742Z,10.06
2023-04-18T01:51:28.527Z,10.06
2023-04-18T01:52:30.459Z,10.05
2023-04-18T01:53:32.407Z,10.07
2023-04-18T01:54:34.091Z,10.13
2023-04-18T01:55:35.971Z,10.02
2023-04-18T01:56:37.682Z,10.15
2023-04-18T01:57:39.360Z,10.08
2023-04-18T01:58:41.822Z,10.12
2023-04-18T01:59:43.550Z,9.95
2023-04-18T02:00:45.503Z,9.90
2023-04-18T02:01:47.256Z,9.85
2023-04-18T02:02:50.557Z,9.91
2023-04-18T02:03:52.940Z,9.92
2023-04-18T02:04:54.877Z,9.92
2023-04-18T02:05:56.610Z,9.91
2023-04-18T02:06:58.302Z,9.95
2023-04-18T02:07:59.991Z,9.98
2023-04-18T02:09:01.788Z,9.99
2023-04-18T02:10:04.039Z,10.00
2023-04-18T02:11:06.049Z,9.91
2023-04-18T02:12:07.809Z,9.89
2023-04-18T02:13:09.745Z,9.88
2023-04-18T02:14:11.865Z,9.91
2023-04-18T02:15:13.772Z,9.95
2023-04-18T02:16:15.539Z,9.92
2023-04-18T02:17:17.327Z,9.89
2023-04-18T02:18:19.034Z,9.90
2023-04-18T02:19:20.776Z,9.87
2023-04-18T02:20:22.780Z,9.90
2023-04-18T02:21:24.561Z,9.85
2023-04-18T02:22:26.264Z,9.91
2023-04-18T02:23:27.944Z,9.89
2023-04-18T02:24:29.690Z,9.87
2023-04-18T02:25:31.431Z,9.92
2023-04-18T02:26:33.149Z,9.91
2023-04-18T02:27:34.893Z,9.93
2023-04-18T02:28:39.251Z,9.99
2023-04-18T02:29:41.096Z,9.97
2023-04-18T02:30:42.831Z,9.97
2023-04-18T02:31:44.609Z,9.98
2023-04-18T02:32:46.982Z,10.07
2023-04-18T02:33:48.776Z,10.12
2023-04-18T02:34:50.576Z,10.15
2023-04-18T02:35:52.322Z,10.15
2023-04-18T02:36:54.001Z,10.23
2023-04-18T02:37:55.694Z,10.22
2023-04-18T02:38:57.481Z,10.23
2023-04-18T02:39:59.259Z,10.22
2023-04-18T02:41:01.079Z,10.27
2023-04-18T02:42:02.794Z,10.29
2023-04-18T02:43:04.624Z,10.14
2023-04-18T02:44:07.187Z,10.22
2023-04-18T02:45:09.872Z,10.29
2023-04-18T02:46:12.000Z,10.28
2023-04-18T02:47:13.757Z,10.19
2023-04-18T02:48:15.686Z,10.24
2023-04-18T02:49:17.398Z,10.23
2023-04-18T02:50:19.264Z,10.21
2023-04-18T02:51:20.988Z,10.21
2023-04-18T02:52:22.984Z,10.16
2023-04-18T02:53:25.209Z,10.12
2023-04-18T02:54:26.970Z,10.11
2023-04-18T02:55:28.719Z,10.09
2023-04-18T02:56:30.412Z,10.05
2023-04-18T02:57:32.142Z,10.05
2023-04-18T02:58:35.954Z,10.05
2023-04-18T02:59:37.638Z,10.02
2023-04-18T03:00:39.366Z,10.00
2023-04-18T03:01:41.143Z,9.94
2023-04-18T03:02:43.016Z,9.93
2023-04-18T03:03:44.826Z,9.88
2023-04-18T03:04:46.588Z,9.79
2023-04-18T03:05:48.617Z,9.79
2023-04-18T03:06:50.402Z,9.76
2023-04-18T03:07:52.168Z,9.54
2023-04-18T03:08:55.297Z,9.80
2023-04-18T03:09:57.030Z,9.82
2023-04-18T03:10:58.811Z,9.79
2023-04-18T03:12:02.260Z,9.70
2023-04-18T03:13:03.994Z,9.73
2023-04-18T03:14:05.768Z,9.83
2023-04-18T03:15:07.948Z,9.86
2023-04-18T03:16:09.735Z,9.83
2023-04-18T03:17:11.698Z,9.91
2023-04-18T03:18:13.380Z,9.93
2023-04-18T03:19:15.116Z,9.98
2023-04-18T03:20:17.838Z,9.99
2023-04-18T03:21:19.616Z,9.88
2023-04-18T03:22:21.424Z,9.82
2023-04-18T03:23:23.144Z,9.85
2023-04-18T03:24:24.850Z,9.78
2023-04-18T03:25:26.560Z,9.78
2023-04-18T03:26:28.627Z,9.81
2023-04-18T03:27:30.437Z,9.75
2023-04-18T03:28:32.180Z,9.73
2023-04-18T03:29:34.105Z,9.75
2023-04-18T03:30:36.023Z,9.79
2023-04-18T03:31:37.812Z,9.84
2023-04-18T03:32:39.577Z,9.85
2023-04-18T03:33:42.536Z,9.85
2023-04-18T03:34:44.223Z,9.90
2023-04-18T03:35:46.667Z,9.95
2023-04-18T03:36:48.535Z,9.94
2023-04-18T03:37:50.541Z,9.97
2023-04-18T03:38:52.276Z,9.99
2023-04-18T03:39:54.109Z,10.01
2023-04-18T03:40:55.824Z,9.99
2023-04-18T03:41:57.566Z,9.98
2023-04-18T03:43:00.137Z,9.98
2023-04-18T03:44:01.848Z,9.94
2023-04-18T03:45:03.851Z,10.00
2023-04-18T03:46:05.703Z,10.02
2023-04-18T03:47:07.679Z,10.05
2023-04-18T03:48:09.366Z,10.01
2023-04-18T03:49:11.093Z,10.01
2023-04-18T03:50:12.804Z,10.00
2023-04-18T03:51:14.858Z,10.00
2023-04-18T03:52:16.623Z,9.94
2023-04-18T03:53:18.341Z,9.98
2023-04-18T03:54:20.032Z,9.94
2023-04-18T03:55:22.032Z,9.98
2023-04-18T03:56:23.796Z,10.05
2023-04-18T03:57:25.607Z,9.99
2023-04-18T03:58:27.317Z,10.10
2023-04-18T03:59:29.655Z,10.05
2023-04-18T04:00:31.496Z,10.01
2023-04-18T04:01:33.800Z,9.99
2023-04-18T04:02:35.788Z,9.92
2023-04-18T04:03:37.689Z,9.89
2023-04-18T04:04:39.566Z,9.93
2023-04-18T04:05:41.476Z,9.95
2023-04-18T04:06:43.299Z,10.01
2023-04-18T04:07:45.224Z,9.99
2023-04-18T04:08:46.927Z,10.02
2023-04-18T04:09:48.710Z,9.99
2023-04-18T04:10:50.650Z,10.01
2023-04-18T04:11:52.387Z,10.03
2023-04-18T04:12:54.094Z,10.02
2023-04-18T04:13:55.829Z,10.09
2023-04-18T04:14:57.606Z,10.06
2023-04-18T04:15:59.469Z,10.04
2023-04-18T04:17:01.372Z,10.01
2023-04-18T04:18:03.116Z,10.04
2023-04-18T04:19:05.036Z,9.98
2023-04-18T04:20:07.569Z,9.94
2023-04-18T04:21:09.282Z,9.97
2023-04-18T04:22:11.285Z,9.94
2023-04-18T04:23:12.982Z,9.98
2023-04-18T04:24:14.912Z,9.93
2023-04-18T04:25:17.530Z,10.02
2023-04-18T04:26:19.273Z,10.00
2023-04-18T04:27:20.986Z,10.02
2023-04-18T04:28:23.372Z,10.02
2023-04-18T04:29:25.122Z,10.02
2023-04-18T04:30:27.227Z,10.01
2023-04-18T04:31:29.055Z,10.01
2023-04-18T04:32:30.909Z,9.94
2023-04-18T04:33:33.423Z,9.90
2023-04-18T04:34:35.906Z,9.92
2023-04-18T04:35:40.438Z,9.92
2023-04-18T04:36:43.253Z,9.86
2023-04-18T04:37:45.282Z,9.86
2023-04-18T04:38:47.414Z,9.83
2023-04-18T04:39:49.230Z,9.90
2023-04-18T04:40:51.563Z,9.88
2023-04-18T04:41:53.665Z,9.86
2023-04-18T04:42:56.218Z,9.85
2023-04-18T04:43:57.908Z,9.83
2023-04-18T04:44:59.664Z,9.79
2023-04-18T04:46:03.967Z,9.79
2023-04-18T04:47:05.852Z,9.78
2023-04-18T04:48:08.565Z,9.66
2023-04-18T04:49:13.544Z,9.59
2023-04-18T04:50:15.940Z,9.61
2023-04-18T04:51:17.679Z,9.59
2023-04-18T04:52:19.783Z,9.69
2023-04-18T04:53:22.157Z,9.73
2023-04-18T04:54:23.917Z,9.78
2023-04-18T04:55:25.656Z,9.79
2023-04-18T04:56:27.378Z,9.77
2023-04-18T04:57:32.215Z,9.80
2023-04-18T04:58:34.380Z,9.84
2023-04-18T04:59:36.327Z,9.82
2023-04-18T05:00:38.048Z,9.82
2023-04-18T05:01:48.205Z,9.83
2023-04-18T05:02:53.688Z,9.83
2023-04-18T05:03:55.862Z,9.82
2023-04-18T05:04:57.626Z,9.83
2023-04-18T05:06:00.154Z,9.83
2023-04-18T05:07:01.994Z,9.75
2023-04-18T05:08:04.130Z,9.72
2023-04-18T05:09:05.824Z,9.73
2023-04-18T05:10:07.886Z,9.71
2023-04-18T05:11:09.587Z,9.72
2023-04-18T05:12:11.349Z,9.75
2023-04-18T05:13:13.168Z,9.78
2023-04-18T05:14:16.112Z,9.76
2023-04-18T05:15:18.617Z,9.76
2023-04-18T05:16:20.967Z,9.76
2023-04-18T05:17:23.032Z,9.76
2023-04-18T05:18:24.868Z,9.70
2023-04-18T05:19:26.590Z,9.70
2023-04-18T05:20:28.411Z,9.77
2023-04-18T05:21:30.204Z,9.82
2023-04-18T05:22:32.543Z,9.88
2023-04-18T05:23:37.635Z,9.83
2023-04-18T05:24:39.670Z,9.84
2023-04-18T05:25:41.629Z,9.85
2023-04-18T05:26:43.509Z,9.64
2023-04-18T05:27:47.165Z,9.92
2023-04-18T05:28:49.272Z,9.90
2023-04-18T05:29:51.064Z,9.91
2023-04-18T05:30:52.885Z,9.88
2023-04-18T05:32:00.324Z,9.93
2023-04-18T05:33:02.420Z,9.92
2023-04-18T05:34:04.278Z,9.96
2023-04-18T05:35:07.210Z,9.95
2023-04-18T05:36:09.093Z,9.97
2023-04-18T05:37:10.921Z,10.00
2023-04-18T05:38:12.675Z,9.97
2023-04-18T05:39:14.422Z,9.92
2023-04-18T05:40:16.261Z,9.92
2023-04-18T05:41:17.963Z,9.94
2023-04-18T05:42:19.670Z,9.98
2023-04-18T05:43:22.164Z,9.95
2023-04-18T05:44:24.453Z,9.93
2023-04-18T05:45:26.267Z,9.97
2023-04-18T05:46:28.048Z,10.02
2023-04-18T05:47:30.508Z,9.95
2023-04-18T05:48:32.263Z,9.97
2023-04-18T05:49:33.994Z,9.98
2023-04-18T05:50:35.712Z,10.01
2023-04-18T05:51:37.591Z,9.99
2023-04-18T05:52:39.344Z,9.98
2023-04-18T05:53:41.062Z,9.98
2023-04-18T05:54:42.779Z,10.04
2023-04-18T05:55:46.593Z,10.03
2023-04-18T05:56:48.458Z,10.11
2023-04-18T05:57:50.177Z,10.11
2023-04-18T05:58:52.049Z,10.07
2023-04-18T05:59:53.764Z,10.13
2023-04-18T06:00:57.971Z,10.09
2023-04-18T06:01:59.695Z,10.09
2023-04-18T06:03:01.638Z,10.14
2023-04-18T06:04:03.788Z,10.17
2023-04-18T06:05:06.627Z,10.20
2023-04-18T06:06:08.765Z,10.24
2023-04-18T06:07:10.868Z,10.32
2023-04-18T06:08:12.669Z,10.33
2023-04-18T06:09:14.428Z,10.33
2023-04-18T06:10:16.371Z,10.45
2023-04-18T06:11:20.262Z,10.48
2023-04-18T06:12:22.020Z,10.54
2023-04-18T06:13:23.796Z,10.58
2023-04-18T06:14:26.256Z,10.58
2023-04-18T06:15:28.111Z,10.59
2023-04-18T06:16:29.935Z,10.62
2023-04-18T06:17:31.816Z,10.57
2023-04-18T06:18:34.176Z,10.52
2023-04-18T06:19:36.239Z,10.55
2023-04-18T06:20:38.019Z,10.56
2023-04-18T06:21:42.111Z,10.58
2023-04-18T06:22:43.840Z,10.63
2023-04-18T06:23:45.568Z,10.70
2023-04-18T06:24:47.302Z,10.70
2023-04-18T06:25:49.058Z,10.73
2023-04-18T06:26:50.947Z,10.74
2023-04-18T06:27:52.696Z,10.87
2023-04-18T06:28:54.474Z,10.92
2023-04-18T06:29:56.540Z,11.00
2023-04-18T06:30:58.268Z,11.03
2023-04-18T06:32:00.326Z,11.08
2023-04-18T06:33:02.274Z,11.17
2023-04-18T06:34:04.056Z,11.22
2023-04-18T06:35:06.349Z,11.28
2023-04-18T06:36:09.069Z,11.27
2023-04-18T06:37:11.705Z,11.31
2023-04-18T06:38:13.636Z,11.39
2023-04-18T06:39:15.380Z,11.45
2023-04-18T06:40:17.299Z,11.44
2023-04-18T06:41:19.080Z,11.44
2023-04-18T06:42:22.468Z,11.44
2023-04-18T06:43:24.630Z,11.40
2023-04-18T06:44:26.441Z,11.48
2023-04-18T06:45:30.811Z,11.53
2023-04-18T06:46:33.286Z,11.56
2023-04-18T06:47:35.094Z,11.48
2023-04-18T06:48:39.840Z,11.44
2023-04-18T06:49:41.534Z,11.50
2023-04-18T06:50:44.010Z,11.58
2023-04-18T06:51:46.171Z,11.46
2023-04-18T06:52:47.902Z,11.52
2023-04-18T06:53:52.837Z,11.62
2023-04-18T06:54:54.981Z,11.72
2023-04-18T06:55:56.810Z,11.65
2023-04-18T06:56:59.246Z,11.66
2023-04-18T06:58:00.944Z,11.63
2023-04-18T06:59:02.686Z,11.67
2023-04-18T07:00:05.639Z,11.71
2023-04-18T07:01:07.543Z,11.79
2023-04-18T07:02:09.387Z,11.84
2023-04-18T07:03:13.583Z,11.90
2023-04-18T07:04:15.861Z,11.93
2023-04-18T07:05:17.948Z,12.01
2023-04-18T07:06:19.674Z,12.15
2023-04-18T07:07:21.516Z,12.35
2023-04-18T07:08:23.261Z,12.44
2023-04-18T07:09:25.043Z,12.56
2023-04-18T07:10:26.746Z,12.65
2023-04-18T07:11:28.923Z,12.76
2023-04-18T07:12:30.664Z,12.89
2023-04-18T07:13:32.440Z,13.03
2023-04-18T07:14:34.400Z,13.10
2023-04-18T07:15:36.356Z,13.26
2023-04-18T07:16:38.618Z,13.44
2023-04-18T07:17:40.579Z,13.61
2023-04-18T07:18:42.289Z,13.75
2023-04-18T07:19:44.580Z,13.86
2023-04-18T07:20:46.323Z,13.75
2023-04-18T07:21:48.090Z,13.69
2023-04-18T07:22:49.789Z,13.79
2023-04-18T07:23:51.547Z,13.80
2023-04-18T07:24:53.293Z,13.95
2023-04-18T07:25:55.129Z,14.14
2023-04-18T07:26:57.075Z,14.12
2023-04-18T07:27:58.806Z,14.39
2023-04-18T07:29:00.684Z,14.64
2023-04-18T07:30:05.639Z,14.79
2023-04-18T07:31:11.727Z,15.18
2023-04-18T07:32:13.635Z,15.83
2023-04-18T07:33:15.399Z,16.19
2023-04-18T07:34:17.988Z,16.52
2023-04-18T07:35:19.736Z,16.78
2023-04-18T07:36:21.817Z,16.87
2023-04-18T07:37:23.772Z,17.05
2023-04-18T07:38:25.696Z,17.38
2023-04-18T07:39:27.504Z,17.67
2023-04-18T07:40:29.236Z,17.79
2023-04-18T07:41:31.287Z,17.88
2023-04-18T07:42:33.139Z,18.04
2023-04-18T07:43:34.950Z,18.22
2023-04-18T07:44:39.698Z,18.35
2023-04-18T07:45:43.422Z,18.34
2023-04-18T07:46:45.451Z,18.47
2023-04-18T07:47:47.250Z,18.47
2023-04-18T07:48:49.017Z,18.48
2023-04-18T07:49:50.977Z,18.54
2023-04-18T07:50:53.440Z,18.58
2023-04-18T07:51:56.488Z,18.68
2023-04-18T07:52:58.215Z,18.70
2023-04-18T07:53:59.937Z,18.71
2023-04-18T07:55:01.710Z,18.72
2023-04-18T07:56:03.485Z,18.70
2023-04-18T07:57:05.268Z,18.74
2023-04-18T07:58:06.978Z,18.68
2023-04-18T07:59:08.692Z,18.63
2023-04-18T08:00:12.604Z,18.59
2023-04-18T08:01:15.482Z,18.67
2023-04-18T08:02:17.241Z,18.76
2023-04-18T08:03:19.373Z,18.85
2023-04-18T08:04:21.608Z,18.90
2023-04-18T08:05:23.466Z,19.04
2023-04-18T08:06:26.466Z,19.14
2023-04-18T08:07:28.297Z,19.18
2023-04-18T08:08:30.060Z,19.15
2023-04-18T08:09:31.815Z,19.11
2023-04-18T08:10:34.264Z,19.18
2023-04-18T08:11:36.122Z,19.17
2023-04-18T08:12:37.991Z,19.17
2023-04-18T08:13:39.704Z,19.24
2023-04-18T08:14:41.848Z,19.27
2023-04-18T08:15:43.680Z,19.28
2023-04-18T08:16:46.673Z,19.28
2023-04-18T08:17:49.268Z,19.27
2023-04-18T08:18:51.050Z,19.23
2023-04-18T08:19:52.771Z,19.25
2023-04-18T08:20:54.517Z,19.21
2023-04-18T08:22:08.516Z,19.21
2023-04-18T08:23:12.775Z,19.26
2023-04-18T08:24:14.966Z,19.15
2023-04-18T08:25:17.094Z,19.10
2023-04-18T08:26:22.215Z,18.94
2023-04-18T08:27:23.941Z,18.99
2023-04-18T08:28:25.862Z,18.96
2023-04-18T08:29:27.604Z,18.99
2023-04-18T08:30:29.571Z,18.89
2023-04-18T08:31:31.885Z,18.83
2023-04-18T08:32:33.889Z,18.83
2023-04-18T08:33:35.841Z,18.82
2023-04-18T08:34:38.246Z,18.72
2023-04-18T08:35:40.064Z,18.67
2023-04-18T08:36:41.769Z,18.53
2023-04-18T08:39:14.655Z,18.25
2023-04-18T08:40:16.892Z,18.25
2023-04-18T08:41:22.122Z,18.23
2023-04-18T08:42:23.963Z,18.19
2023-04-18T08:43:25.608Z,18.17
2023-04-18T08:44:30.664Z,18.00
2023-04-18T08:45:33.479Z,18.00
2023-04-18T08:46:36.272Z,17.83
2023-04-18T08:47:37.935Z,17.81
2023-04-18T08:48:39.587Z,17.64
2023-04-18T08:49:41.224Z,17.51
2023-04-18T08:50:43.416Z,17.42
2023-04-18T08:51:47.480Z,17.06
2023-04-18T08:52:50.598Z,16.80
2023-04-18T08:53:53.169Z,16.71
2023-04-18T08:54:54.781Z,16.51
2023-04-18T08:55:57.345Z,16.35
2023-04-18T08:57:06.491Z,16.32
2023-04-18T08:58:08.138Z,16.12
2023-04-18T08:59:11.585Z,15.94
2023-04-18T09:00:14.003Z,15.80
2023-04-18T09:01:17.842Z,15.71
2023-04-18T09:02:22.383Z,15.71
2023-04-18T09:03:44.173Z,15.52
2023-04-18T09:04:49.321Z,15.50
2023-04-18T09:06:10.093Z,15.46
2023-04-18T09:07:17.868Z,15.34
2023-04-18T09:08:24.298Z,15.30
2023-04-18T09:09:27.605Z,15.30
2023-04-18T09:10:34.164Z,15.35
2023-04-18T09:11:35.742Z,15.40
2023-04-18T09:12:49.939Z,15.37
2023-04-18T09:13:53.217Z,15.36
2023-04-18T09:14:59.677Z,15.36
2023-04-18T09:16:01.220Z,15.34
2023-04-18T09:17:04.185Z,15.23
2023-04-18T09:18:10.403Z,15.30
2023-04-18T09:19:14.588Z,15.31
2023-04-18T09:20:30.767Z,15.35
2023-04-18T09:21:32.915Z,15.36
2023-04-18T09:22:52.181Z,15.36
2023-04-18T09:24:17.567Z,15.32
2023-04-18T09:25:43.244Z,15.28
2023-04-18T09:26:47.980Z,15.21
2023-04-18T09:27:49.637Z,15.23
2023-04-18T09:28:53.909Z,15.26
2023-04-18T09:29:57.375Z,15.26
2023-04-18T09:31:09.670Z,15.28
2023-04-18T09:32:11.528Z,15.31
2023-04-18T09:33:14.619Z,15.33
2023-04-18T09:34:25.154Z,15.35
2023-04-18T09:35:27.376Z,15.32
2023-04-18T09:36:29.233Z,15.34
2023-04-18T09:37:31.164Z,15.37
2023-04-18T09:38:44.876Z,15.41
2023-04-18T09:39:46.656Z,15.47
2023-04-18T09:41:08.052Z,15.48
2023-04-18T09:42:10.882Z,15.43
2023-04-18T09:43:19.912Z,15.39
2023-04-18T09:44:21.626Z,15.36
2023-04-18T09:45:24.963Z,15.38
2023-04-18T09:46:27.948Z,15.36
2023-04-18T09:47:30.847Z,15.32
2023-04-18T09:48:32.567Z,15.26
2023-04-18T09:49:34.806Z,15.21
2023-04-18T09:50:39.233Z,15.15
2023-04-18T09:51:42.258Z,15.11
2023-04-18T09:52:46.044Z,15.00
2023-04-18T09:53:48.156Z,14.83
2023-04-18T09:54:55.604Z,14.82
2023-04-18T09:55:57.992Z,14.74
2023-04-18T09:57:02.990Z,14.69
2023-04-18T09:58:05.997Z,14.62
2023-04-18T09:59:10.074Z,14.54
2023-04-18T10:00:17.514Z,14.47
2023-04-18T10:01:19.589Z,14.41
2023-04-18T10:02:23.208Z,14.34
2023-04-18T10:03:32.859Z,14.18
2023-04-18T10:04:35.089Z,14.20
2023-04-18T10:05:40.109Z,14.22
2023-04-18T10:06:44.572Z,14.22
2023-04-18T10:07:48.095Z,14.28
2023-04-18T10:08:52.026Z,14.32
2023-04-18T10:09:53.830Z,14.34
2023-04-18T10:10:58.006Z,14.33
2023-04-18T10:12:02.472Z,14.25
2023-04-18T10:13:06.295Z,14.36
2023-04-18T10:14:12.892Z,14.39
2023-04-18T10:15:16.144Z,14.33
2023-04-18T10:16:18.323Z,14.27
2023-04-18T10:17:20.459Z,14.27
2023-04-18T10:18:25.050Z,14.24
2023-04-18T10:19:28.554Z,14.21
2023-04-18T10:20:32.005Z,14.18
2023-04-18T10:21:34.541Z,14.18
2023-04-18T10:22:36.704Z,14.15
2023-04-18T10:23:40.004Z,14.15
2023-04-18T10:24:49.776Z,14.03
2023-04-18T10:25:51.910Z,13.99
2023-04-18T10:26:53.672Z,13.99
2023-04-18T10:27:57.309Z,13.95
2023-04-18T10:28:59.569Z,13.90
2023-04-18T10:30:01.306Z,13.91
2023-04-18T10:31:04.321Z,13.99
2023-04-18T10:32:07.147Z,13.96
2023-04-18T10:33:30.355Z,13.95
2023-04-18T10:34:33.381Z,14.05
2023-04-18T10:35:36.091Z,14.07
2023-04-18T10:36:57.736Z,14.11
2023-04-18T10:38:00.154Z,14.18
2023-04-18T10:39:23.389Z,14.16
2023-04-18T10:40:34.791Z,14.17
2023-04-18T10:41:50.576Z,14.24
2023-04-18T10:42:52.758Z,14.27
2023-04-18T10:44:15.815Z,14.28
2023-04-18T10:45:24.915Z,14.28
2023-04-18T10:46:32.589Z,14.21
2023-04-18T10:47:34.923Z,14.24
2023-04-18T10:48:39.326Z,14.31
2023-04-18T10:49:54.333Z,14.39
2023-04-18T10:51:20.729Z,14.36
2023-04-18T10:52:22.547Z,14.47
2023-04-18T10:53:24.332Z,14.50
2023-04-18T10:54:28.121Z,14.63
2023-04-18T10:55:31.369Z,14.69
2023-04-18T10:56:33.173Z,14.65
2023-04-18T10:57:43.036Z,14.76
2023-04-18T10:58:52.140Z,14.84
2023-04-18T10:59:54.959Z,14.98
2023-04-18T11:00:57.076Z,15.04
2023-04-18T11:02:26.434Z,15.13
2023-04-18T11:03:33.802Z,15.19
2023-04-18T11:04:36.067Z,15.27
2023-04-18T11:05:37.875Z,15.22
2023-04-18T11:06:58.509Z,15.28
2023-04-18T11:08:00.319Z,15.32
2023-04-18T11:09:13.792Z,15.35
2023-04-18T11:10:24.619Z,15.29
2023-04-18T11:11:26.413Z,15.21
2023-04-18T11:12:32.937Z,15.20
2023-04-18T11:13:36.977Z,15.09
2023-04-18T11:14:47.722Z,15.12
2023-04-18T11:15:49.411Z,15.06
2023-04-18T11:16:51.279Z,15.07
2023-04-18T11:18:02.849Z,15.06
2023-04-18T11:19:22.012Z,15.10
2023-04-18T11:20:24.009Z,15.15
2023-04-18T11:21:30.715Z,15.19
2023-04-18T11:22:32.828Z,15.21
2023-04-18T11:23:34.674Z,15.18
2023-04-18T11:24:36.928Z,15.24
2023-04-18T11:25:40.635Z,15.28
2023-04-18T11:26:44.594Z,15.33
2023-04-18T11:27:48.170Z,15.37
2023-04-18T11:28:59.181Z,15.31
2023-04-18T11:30:00.966Z,15.33
2023-04-18T11:31:03.189Z,15.30
2023-04-18T11:32:09.431Z,15.29
2023-04-18T11:33:12.650Z,15.37
2023-04-18T11:34:14.722Z,15.43
2023-04-18T11:35:16.645Z,15.47
2023-04-18T11:36:18.458Z,15.46
2023-04-18T11:37:20.945Z,15.48
2023-04-18T11:38:28.908Z,15.48
2023-04-18T11:39:34.854Z,15.52
2023-04-18T11:40:39.871Z,15.54
2023-04-18T11:41:41.997Z,15.58
2023-04-18T11:42:43.802Z,15.63
2023-04-18T11:43:46.651Z,15.71
2023-04-18T11:44:49.350Z,15.74
2023-04-18T11:45:59.939Z,15.77
2023-04-18T11:47:01.737Z,15.78
2023-04-18T11:48:03.585Z,15.72
2023-04-18T11:49:05.577Z,15.72
2023-04-18T11:50:08.892Z,15.68
2023-04-18T11:51:35.687Z,15.54
2023-04-18T11:52:38.463Z,15.47
2023-04-18T11:53:40.228Z,15.43
2023-04-18T11:54:44.134Z,15.44
2023-04-18T11:55:55.955Z,15.51
2023-04-18T11:56:57.847Z,15.50
2023-04-18T11:58:01.444Z,15.49
2023-04-18T11:59:09.803Z,15.47
2023-04-18T12:00:12.677Z,15.51
2023-04-18T12:01:21.253Z,15.53
2023-04-18T12:02:24.696Z,15.44
2023-04-18T12:03:29.282Z,15.54
2023-04-18T12:05:00.265Z,15.57
2023-04-18T12:06:02.548Z,15.39
2023-04-18T12:07:05.008Z,15.41
2023-04-18T12:08:17.387Z,15.34
2023-04-18T12:09:21.358Z,15.33
2023-04-18T12:10:24.511Z,15.28
2023-04-18T12:11:26.294Z,15.18
2023-04-18T12:12:28.031Z,15.16
2023-04-18T12:13:33.172Z,15.10
2023-04-18T12:14:36.024Z,15.18
2023-04-18T12:15:40.691Z,15.19
2023-04-18T12:16:42.428Z,15.22
2023-04-18T12:17:45.556Z,15.27
2023-04-18T12:18:49.444Z,15.27
2023-04-18T12:19:53.633Z,15.25
2023-04-18T12:20:55.406Z,15.26
2023-04-18T12:22:01.510Z,15.26
2023-04-18T12:23:03.789Z,15.25
2023-04-18T12:24:18.339Z,15.21
2023-04-18T12:25:27.552Z,15.22
2023-04-18T12:26:29.644Z,15.25
2023-04-18T12:28:01.371Z,15.21
2023-04-18T12:29:03.067Z,15.22
2023-04-18T12:30:05.189Z,15.24
2023-04-18T12:31:07.519Z,15.21
2023-04-18T12:32:09.329Z,15.23
2023-04-18T12:33:11.652Z,15.17
2023-04-18T12:34:16.210Z,15.23
2023-04-18T12:35:21.648Z,15.24
2023-04-18T12:36:23.594Z,15.26
2023-04-18T12:37:25.735Z,15.26
2023-04-18T12:38:27.684Z,15.25
2023-04-18T12:39:29.378Z,15.26
2023-04-18T12:40:31.222Z,15.28
2023-04-18T12:41:32.986Z,15.27
2023-04-18T12:42:34.712Z,15.20
2023-04-18T12:43:36.403Z,15.18
2023-04-18T12:44:38.080Z,15.17
2023-04-18T12:45:39.824Z,15.16
2023-04-18T12:46:41.648Z,15.18
2023-04-18T12:47:45.848Z,15.08
2023-04-18T12:48:47.630Z,15.17
2023-04-18T12:49:49.302Z,15.11
2023-04-18T12:50:51.091Z,15.09
2023-04-18T12:51:52.791Z,15.05
2023-04-18T12:52:55.751Z,14.96
2023-04-18T12:53:57.435Z,14.95
2023-04-18T12:54:59.258Z,14.83
2023-04-18T12:56:01.070Z,14.80
2023-04-18T12:57:03.400Z,14.74
2023-04-18T12:58:05.127Z,14.68
2023-04-18T12:59:06.845Z,14.44
2023-04-18T13:00:13.170Z,14.35
2023-04-18T13:01:15.602Z,14.32
2023-04-18T13:02:17.515Z,14.22
2023-04-18T13:03:19.506Z,14.08
2023-04-18T13:04:21.775Z,14.03
2023-04-18T13:05:27.311Z,13.86
2023-04-18T13:06:30.872Z,13.89
2023-04-18T13:07:33.161Z,13.68
2023-04-18T13:08:35.070Z,13.46
2023-04-18T13:09:36.791Z,13.37
2023-04-18T13:10:38.514Z,13.32
2023-04-18T13:11:40.327Z,13.32
2023-04-18T13:12:42.147Z,13.39
2023-04-18T13:13:43.833Z,13.42
2023-04-18T13:14:46.668Z,13.44
2023-04-18T13:15:48.431Z,13.44
2023-04-18T13:16:50.422Z,13.31
2023-04-18T13:17:52.110Z,13.36
2023-04-18T13:18:53.840Z,13.35
2023-04-18T13:19:56.817Z,13.25
2023-04-18T13:20:58.518Z,13.18
2023-04-18T13:22:01.338Z,13.15
2023-04-18T13:23:03.343Z,12.91
2023-04-18T13:24:05.463Z,12.84
2023-04-18T13:25:08.452Z,12.84
2023-04-18T13:26:11.872Z,12.64
2023-04-18T13:27:16.448Z,12.46
2023-04-18T13:28:18.138Z,12.44
2023-04-18T13:29:19.812Z,12.37
2023-04-18T13:30:21.545Z,12.43
2023-04-18T13:31:23.322Z,12.47
2023-04-18T13:32:25.893Z,12.50
2023-04-18T13:33:27.612Z,12.54
2023-04-18T13:34:29.698Z,12.54
2023-04-18T13:35:31.447Z,12.56
2023-04-18T13:36:37.386Z,12.44
2023-04-18T13:37:39.932Z,12.49
2023-04-18T13:38:41.669Z,12.43
2023-04-18T13:39:43.634Z,12.47
2023-04-18T13:40:45.491Z,12.33
2023-04-18T13:41:47.183Z,12.34